createdAt,value
2023-04-12T00:01:18.762Z,9.99
2023-04-12T00:03:51.313Z,9.97
2023-04-12T00:06:27.845Z,9.95
2023-04-12T00:09:04.399Z,9.93
2023-04-12T00:11:37.150Z,9.87
2023-04-12T00:14:09.232Z,9.84
2023-04-12T00:16:41.778Z,9.80
2023-04-12T00:19:13.869Z,9.77
2023-04-12T00:21:46.162Z,9.71
2023-04-12T00:24:19.667Z,9.66
2023-04-12T00:26:51.881Z,9.64
2023-04-12T00:29:25.261Z,9.56
2023-04-12T00:31:57.668Z,9.52
2023-04-12T00:34:30.014Z,9.51
2023-04-12T00:37:03.084Z,9.50
2023-04-12T00:39:35.172Z,9.48
2023-04-12T00:42:07.618Z,9.49
2023-04-12T00:44:39.718Z,9.46
2023-04-12T00:47:12.766Z,9.41
2023-04-12T00:49:44.758Z,9.40
2023-04-12T00:52:18.147Z,9.37
2023-04-12T00:54:51.995Z,9.41
2023-04-12T00:57:24.080Z,9.43
2023-04-12T00:59:56.166Z,9.48
2023-04-12T01:02:29.988Z,9.54
2023-04-12T01:05:03.110Z,9.49
2023-04-12T01:07:37.968Z,9.46
2023-04-12T01:10:45.285Z,9.44
2023-04-12T01:13:29.341Z,9.38
2023-04-12T01:16:12.734Z,9.38
2023-04-12T01:18:50.318Z,9.33
2023-04-12T01:21:28.075Z,9.22
2023-04-12T01:24:14.846Z,9.21
2023-04-12T01:26:49.526Z,9.18
2023-04-12T01:29:22.412Z,9.18
2023-04-12T01:31:57.221Z,9.32
2023-04-12T01:34:32.389Z,9.15
2023-04-12T01:37:04.924Z,9.16
2023-04-12T01:39:37.424Z,9.15
2023-04-12T01:42:09.461Z,9.12
2023-04-12T01:44:41.439Z,9.09
2023-04-12T01:47:14.080Z,9.07
2023-04-12T01:49:51.701Z,9.07
2023-04-12T01:52:26.725Z,9.04
2023-04-12T01:55:01.573Z,9.03
2023-04-12T01:57:37.462Z,9.03
2023-04-12T02:00:11.879Z,9.03
2023-04-12T02:02:46.971Z,9.04
2023-04-12T02:05:19.867Z,9.01
2023-04-12T02:07:52.628Z,8.99
2023-04-12T02:10:32.361Z,8.93
2023-04-12T02:13:04.684Z,8.87
2023-04-12T02:15:37.704Z,8.83
2023-04-12T02:18:09.860Z,8.80
2023-04-12T02:20:43.969Z,8.82
2023-04-12T02:23:16.234Z,8.84
2023-04-12T02:25:48.576Z,8.84
2023-04-12T02:28:22.820Z,8.83
2023-04-12T02:30:55.047Z,8.81
2023-04-12T02:33:28.530Z,8.81
2023-04-12T02:36:02.943Z,8.78
2023-04-12T02:38:34.972Z,8.78
2023-04-12T02:41:08.084Z,8.78
2023-04-12T02:43:40.317Z,8.80
2023-04-12T02:46:19.652Z,8.83
2023-04-12T02:48:55.500Z,8.86
2023-04-12T02:51:29.369Z,8.87
2023-04-12T02:54:01.487Z,8.91
2023-04-12T02:56:37.134Z,8.96
2023-04-12T02:59:10.831Z,8.99
2023-04-12T03:02:02.456Z,9.04
2023-04-12T03:04:38.025Z,9.11
2023-04-12T03:07:10.529Z,9.14
2023-04-12T03:09:44.738Z,9.16
2023-04-12T03:12:17.731Z,9.20
2023-04-12T03:15:03.412Z,9.27
2023-04-12T03:17:35.639Z,9.31
2023-04-12T03:20:12.031Z,9.35
2023-04-12T03:22:45.690Z,9.42
2023-04-12T03:25:20.707Z,9.48
2023-04-12T03:27:54.401Z,9.58
2023-04-12T03:30:28.370Z,9.69
2023-04-12T03:33:01.032Z,9.79
2023-04-12T03:35:33.575Z,9.91
2023-04-12T03:38:06.456Z,9.99
2023-04-12T03:40:38.999Z,10.12
2023-04-12T03:43:11.107Z,10.22
2023-04-12T03:45:44.078Z,10.33
2023-04-12T03:48:16.880Z,10.43
2023-04-12T03:50:49.226Z,10.54
2023-04-12T03:53:23.912Z,10.66
2023-04-12T03:55:56.590Z,10.77
2023-04-12T03:58:30.508Z,10.91
2023-04-12T04:01:06.943Z,11.04
2023-04-12T04:03:39.567Z,11.19
2023-04-12T04:06:13.870Z,11.33
2023-04-12T04:08:46.301Z,11.46
2023-04-12T04:11:18.880Z,11.58
2023-04-12T04:13:52.840Z,11.82
2023-04-12T04:16:25.057Z,11.82
2023-04-12T04:18:57.866Z,11.90
2023-04-12T04:21:31.478Z,12.00
2023-04-12T04:24:04.338Z,12.12
2023-04-12T04:26:38.501Z,12.35
2023-04-12T04:29:15.348Z,12.43
2023-04-12T04:31:47.776Z,12.57
2023-04-12T04:34:20.350Z,12.67
2023-04-12T04:36:53.938Z,12.78
2023-04-12T04:39:27.838Z,12.90
2023-04-12T04:42:00.951Z,12.99
2023-04-12T04:44:48.018Z,13.10
2023-04-12T04:47:20.341Z,13.18
2023-04-12T04:49:52.608Z,13.25
2023-04-12T04:52:26.816Z,13.33
2023-04-12T04:55:02.924Z,13.40
2023-04-12T04:57:37.229Z,13.51
2023-04-12T05:00:11.779Z,13.60
2023-04-12T05:02:46.138Z,13.67
2023-04-12T05:05:21.649Z,13.81
2023-04-12T05:07:55.349Z,13.86
2023-04-12T05:10:27.620Z,13.96
2023-04-12T05:13:00.494Z,14.08
2023-04-12T05:15:33.327Z,14.15
2023-04-12T05:18:05.870Z,14.25
2023-04-12T05:20:40.265Z,14.35
2023-04-12T05:23:13.416Z,14.46
2023-04-12T05:25:48.490Z,14.56
2023-04-12T05:28:21.538Z,14.67
2023-04-12T05:30:55.063Z,14.77
2023-04-12T05:33:30.236Z,14.89
2023-04-12T05:36:02.781Z,15.01
2023-04-12T05:38:35.670Z,15.09
2023-04-12T05:41:09.632Z,15.18
2023-04-12T05:43:42.072Z,15.27
2023-04-12T05:46:14.593Z,15.34
2023-04-12T05:48:48.216Z,15.42
2023-04-12T05:51:30.657Z,15.50
2023-04-12T05:53:55.109Z,15.59
2023-04-12T05:56:28.361Z,15.83
2023-04-12T05:59:02.859Z,16.08
2023-04-12T06:01:36.079Z,16.72
2023-04-12T06:04:08.739Z,17.55
2023-04-12T06:06:43.755Z,17.82
2023-04-12T06:09:17.501Z,17.90
2023-04-12T06:11:49.678Z,18.53
2023-04-12T06:14:21.981Z,18.53
2023-04-12T06:16:54.415Z,19.18
2023-04-12T06:19:27.532Z,19.74
2023-04-12T06:21:59.549Z,20.03
2023-04-12T06:24:31.865Z,20.48
2023-04-12T06:27:04.405Z,20.68
2023-04-12T06:29:36.642Z,20.95
2023-04-12T06:32:09.128Z,21.42
2023-04-12T06:34:41.990Z,21.72
2023-04-12T06:37:16.294Z,21.69
2023-04-12T06:39:49.169Z,21.69
2023-04-12T06:42:21.251Z,21.80
2023-04-12T06:44:53.545Z,21.95
2023-04-12T06:47:26.908Z,22.24
2023-04-12T06:49:59.116Z,22.85
2023-04-12T06:52:32.799Z,24.00
2023-04-12T06:55:04.957Z,24.94
2023-04-12T06:57:37.091Z,25.87
2023-04-12T07:00:09.916Z,26.86
2023-04-12T07:02:55.288Z,27.57
2023-04-12T07:05:27.622Z,27.69
2023-04-12T07:07:59.881Z,27.78
2023-04-12T07:10:33.097Z,27.41
2023-04-12T07:13:07.194Z,27.05
2023-04-12T07:15:39.425Z,26.50
2023-04-12T07:18:11.932Z,25.88
2023-04-12T07:20:44.227Z,24.87
2023-04-12T07:23:16.604Z,23.84
2023-04-12T07:25:49.033Z,22.96
2023-04-12T07:28:22.185Z,22.23
2023-04-12T07:30:54.283Z,21.59
2023-04-12T07:33:28.287Z,21.13
2023-04-12T07:36:01.152Z,20.75
2023-04-12T07:38:33.562Z,20.41
2023-04-12T07:41:05.644Z,20.14
2023-04-12T07:43:37.831Z,19.94
2023-04-12T07:46:10.082Z,19.77
2023-04-12T07:48:43.262Z,19.64
2023-04-12T07:51:15.476Z,19.54
2023-04-12T07:53:52.486Z,19.46
2023-04-12T07:56:25.087Z,19.40
2023-04-12T07:58:57.885Z,19.38
2023-04-12T08:01:30.728Z,19.31
2023-04-12T08:04:03.939Z,19.28
2023-04-12T08:06:37.772Z,19.27
2023-04-12T08:09:10.146Z,19.27
2023-04-12T08:11:42.541Z,19.31
2023-04-12T08:14:14.825Z,19.31
2023-04-12T08:16:47.039Z,19.31
2023-04-12T08:19:21.552Z,19.26
2023-04-12T08:21:54.596Z,19.25
2023-04-12T08:24:26.951Z,19.27
2023-04-12T08:26:59.821Z,19.26
2023-04-12T08:29:32.168Z,19.23
2023-04-12T08:32:05.492Z,19.23
2023-04-12T08:34:38.795Z,19.25
2023-04-12T08:37:11.170Z,19.25
2023-04-12T08:39:43.724Z,19.30
2023-04-12T08:42:17.043Z,19.25
2023-04-12T08:44:50.948Z,19.21
2023-04-12T08:47:23.954Z,19.24
2023-04-12T08:49:57.560Z,19.28
2023-04-12T08:52:29.923Z,19.31
2023-04-12T08:55:04.582Z,19.35
2023-04-12T08:57:42.292Z,19.46
2023-04-12T09:00:16.232Z,19.56
2023-04-12T09:02:49.288Z,19.67
2023-04-12T09:05:24.116Z,19.78
2023-04-12T09:07:57.909Z,19.82
2023-04-12T09:10:38.876Z,19.82
2023-04-12T09:13:12.309Z,19.87
2023-04-12T09:15:54.074Z,19.90
2023-04-12T09:18:27.716Z,20.00
2023-04-12T09:21:12.155Z,20.04
2023-04-12T09:23:44.704Z,20.11
2023-04-12T09:26:30.424Z,20.21
2023-04-12T09:29:03.749Z,20.25
2023-04-12T09:31:37.402Z,20.31
2023-04-12T09:34:14.615Z,20.34
2023-04-12T09:36:47.765Z,20.36
2023-04-12T09:39:20.360Z,20.45
2023-04-12T09:41:56.522Z,20.53
2023-04-12T09:44:32.066Z,20.50
2023-04-12T09:47:06.413Z,20.48
2023-04-12T09:49:41.074Z,20.41
2023-04-12T09:52:13.721Z,20.38
2023-04-12T09:54:49.802Z,20.57
2023-04-12T09:57:24.739Z,20.26
2023-04-12T10:00:00.045Z,20.19
2023-04-12T10:02:33.931Z,20.23
2023-04-12T10:05:07.488Z,20.20
2023-04-12T10:07:44.809Z,20.21
2023-04-12T10:10:19.103Z,20.16
2023-04-12T10:12:53.229Z,20.11
2023-04-12T10:15:26.626Z,20.10
2023-04-12T10:18:07.658Z,20.02
2023-04-12T10:20:42.335Z,19.95
2023-04-12T10:23:16.614Z,19.87
2023-04-12T10:25:50.110Z,19.86
2023-04-12T10:28:23.147Z,19.83
2023-04-12T10:31:00.447Z,19.82
2023-04-12T10:33:33.256Z,19.75
2023-04-12T10:36:11.619Z,19.77
2023-04-12T10:38:48.672Z,19.79
2023-04-12T10:41:25.792Z,19.82
2023-04-12T10:44:02.056Z,19.87
2023-04-12T10:46:43.418Z,19.92
2023-04-12T10:49:19.257Z,19.98
2023-04-12T10:52:12.389Z,20.06
2023-04-12T10:54:45.267Z,20.11
2023-04-12T10:57:43.911Z,20.15
2023-04-12T11:00:17.171Z,20.18
2023-04-12T11:03:10.880Z,20.19
2023-04-12T11:06:12.651Z,20.13
2023-04-12T11:08:57.198Z,20.16
2023-04-12T11:11:35.844Z,20.20
2023-04-12T11:14:11.009Z,20.14
2023-04-12T11:17:08.956Z,20.14
2023-04-12T11:19:46.685Z,20.10
2023-04-12T11:22:22.478Z,20.10
2023-04-12T11:24:57.488Z,20.12
2023-04-12T11:27:31.938Z,20.18
2023-04-12T11:30:04.012Z,20.13
2023-04-12T11:32:39.370Z,20.18
2023-04-12T11:35:11.774Z,20.14
2023-04-12T11:37:45.118Z,20.17
2023-04-12T11:40:17.591Z,20.25
2023-04-12T11:42:50.180Z,20.33
2023-04-12T11:45:22.390Z,20.44
2023-04-12T11:47:55.037Z,20.55
2023-04-12T11:50:32.466Z,20.66
2023-04-12T11:53:16.038Z,20.72
2023-04-12T11:55:52.184Z,20.80
2023-04-12T11:58:26.559Z,20.87
2023-04-12T12:01:00.067Z,20.88
2023-04-12T12:03:32.540Z,20.89
2023-04-12T12:06:06.168Z,20.98
2023-04-12T12:08:38.890Z,20.99
2023-04-12T12:11:11.131Z,21.06
2023-04-12T12:13:48.250Z,21.14
2023-04-12T12:16:22.145Z,21.46
2023-04-12T12:18:54.638Z,22.22
2023-04-12T12:21:27.904Z,23.69
2023-04-12T12:24:00.425Z,25.83
2023-04-12T12:26:33.193Z,27.87
2023-04-12T12:29:06.261Z,29.79
2023-04-12T12:34:14.485Z,31.00
2023-04-12T12:36:47.984Z,31.59
2023-04-12T12:39:20.206Z,32.83
2023-04-12T12:41:56.583Z,34.00
2023-04-12T12:44:29.248Z,34.56
2023-04-12T12:47:10.157Z,35.28
2023-04-12T12:49:36.321Z,36.28
2023-04-12T12:52:08.623Z,37.20
2023-04-12T12:54:41.769Z,37.92
2023-04-12T12:57:14.349Z,38.55
2023-04-12T12:59:46.732Z,39.27
2023-04-12T13:02:19.986Z,39.74
2023-04-12T13:04:52.371Z,40.15
2023-04-12T13:07:24.625Z,40.32
2023-04-12T13:09:57.057Z,40.61
2023-04-12T13:12:29.368Z,40.81
2023-04-12T13:15:13.397Z,41.12
2023-04-12T13:17:35.880Z,41.34
2023-04-12T13:20:09.862Z,41.92
2023-04-12T13:22:42.021Z,42.07
2023-04-12T13:25:14.279Z,42.49
2023-04-12T13:27:46.335Z,42.39
2023-04-12T13:30:21.664Z,42.40
2023-04-12T13:32:55.486Z,42.41
2023-04-12T13:35:27.916Z,41.92
2023-04-12T13:38:00.180Z,41.80
2023-04-12T13:40:32.528Z,41.81
2023-04-12T13:43:04.806Z,41.66
2023-04-12T13:45:37.284Z,41.53
2023-04-12T13:48:10.042Z,41.41
2023-04-12T13:50:42.795Z,41.22
2023-04-12T13:53:14.907Z,41.20
2023-04-12T13:55:48.644Z,41.25
2023-04-12T13:58:21.132Z,41.24
2023-04-12T14:00:54.508Z,41.22
2023-04-12T14:03:26.709Z,41.12
2023-04-12T14:05:58.904Z,40.72
2023-04-12T14:08:31.392Z,40.28
2023-04-12T14:11:04.668Z,39.90
2023-04-12T14:13:36.609Z,39.01
2023-04-12T14:16:09.613Z,38.32
2023-04-12T14:18:42.569Z,37.75
2023-04-12T14:21:14.698Z,37.61
2023-04-12T14:23:46.978Z,37.48
2023-04-12T14:26:19.368Z,37.51
2023-04-12T14:28:51.771Z,37.73
2023-04-12T14:31:24.769Z,37.78
2023-04-12T14:33:56.917Z,37.06
2023-04-12T14:36:29.560Z,36.09
2023-04-12T14:39:07.676Z,35.10
2023-04-12T14:41:39.268Z,34.12
2023-04-12T14:44:11.242Z,33.26
2023-04-12T14:46:43.325Z,32.60
2023-04-12T14:49:15.428Z,31.46
2023-04-12T14:51:47.744Z,30.13
2023-04-12T14:54:19.868Z,28.80
2023-04-12T14:56:55.546Z,27.53
2023-04-12T14:59:27.603Z,26.46
2023-04-12T15:02:00.050Z,25.52
2023-04-12T15:04:32.319Z,24.81
2023-04-12T15:07:04.942Z,24.30
2023-04-12T15:09:37.135Z,23.86
2023-04-12T15:12:09.524Z,23.44
2023-04-12T15:14:41.894Z,23.11
2023-04-12T15:17:14.859Z,22.83
2023-04-12T15:19:47.402Z,22.54
2023-04-12T15:22:19.368Z,22.28
2023-04-12T15:24:51.428Z,21.97
2023-04-12T15:27:23.655Z,21.70
2023-04-12T15:29:56.081Z,21.46
2023-04-12T15:32:34.993Z,21.23
2023-04-12T15:35:22.832Z,21.03
2023-04-12T15:37:41.335Z,20.84
2023-04-12T15:40:18.772Z,20.66
2023-04-12T15:42:51.692Z,20.48
2023-04-12T15:45:24.465Z,20.30
2023-04-12T15:47:56.807Z,20.12
2023-04-12T15:50:29.006Z,19.93
2023-04-12T15:53:01.543Z,19.78
2023-04-12T15:55:33.767Z,19.63
2023-04-12T15:58:06.505Z,19.53
2023-04-12T16:00:39.245Z,19.43
2023-04-12T16:03:12.986Z,19.27
2023-04-12T16:05:45.442Z,19.12
2023-04-12T16:08:17.778Z,18.97
2023-04-12T16:10:51.060Z,18.79
2023-04-12T16:13:23.297Z,18.62
2023-04-12T16:15:55.616Z,18.44
2023-04-12T16:18:29.538Z,18.31
2023-04-12T16:21:01.952Z,18.14
2023-04-12T16:23:34.276Z,18.00
2023-04-12T16:26:06.869Z,17.86
2023-04-12T16:28:41.542Z,17.71
2023-04-12T16:31:15.531Z,17.57
2023-04-12T16:33:51.341Z,17.48
2023-04-12T16:36:23.696Z,17.41
2023-04-12T16:38:57.853Z,17.33
2023-04-12T16:41:30.327Z,17.24
2023-04-12T16:44:03.494Z,17.17
2023-04-12T16:46:36.262Z,17.10
2023-04-12T16:49:09.264Z,17.02
2023-04-12T16:51:41.745Z,16.99
2023-04-12T16:54:13.835Z,16.89
2023-04-12T16:56:47.372Z,16.84
2023-04-12T16:59:20.003Z,16.80
2023-04-12T17:01:52.418Z,16.73
2023-04-12T17:04:24.786Z,16.68
2023-04-12T17:06:57.543Z,16.59
2023-04-12T17:09:30.005Z,16.55
2023-04-12T17:12:02.294Z,16.53
2023-04-12T17:14:34.772Z,16.49
2023-04-12T17:17:08.661Z,16.43
2023-04-12T17:19:41.110Z,16.39
2023-04-12T17:22:13.773Z,16.33
2023-04-12T17:24:46.501Z,16.16
2023-04-12T17:27:18.756Z,16.10
2023-04-12T17:29:50.714Z,16.10
2023-04-12T17:32:22.907Z,16.12
2023-04-12T17:34:57.731Z,16.22
2023-04-12T17:37:30.266Z,16.18
2023-04-12T17:40:04.726Z,16.15
2023-04-12T17:42:37.524Z,16.15
2023-04-12T17:45:12.660Z,16.15
2023-04-12T17:47:44.956Z,16.15
2023-04-12T17:50:17.295Z,16.16
2023-04-12T17:52:49.688Z,16.14
2023-04-12T17:55:23.498Z,16.10
2023-04-12T17:57:55.941Z,16.07
2023-04-12T18:00:28.095Z,15.97
2023-04-12T18:03:00.509Z,15.97
2023-04-12T18:05:33.076Z,15.88
2023-04-12T18:08:06.244Z,15.88
2023-04-12T18:10:38.537Z,15.82
2023-04-12T18:13:11.267Z,15.79
2023-04-12T18:15:43.720Z,15.75
2023-04-12T18:18:16.242Z,15.68
2023-04-12T18:20:48.469Z,15.67
2023-04-12T18:23:20.998Z,15.61
2023-04-12T18:25:53.369Z,15.58
2023-04-12T18:28:26.442Z,15.50
2023-04-12T18:30:58.860Z,15.46
2023-04-12T18:33:31.326Z,15.44
2023-04-12T18:36:05.173Z,15.40
2023-04-12T18:38:37.752Z,15.39
2023-04-12T18:41:17.735Z,15.25
2023-04-12T18:43:49.755Z,15.32
2023-04-12T18:46:22.013Z,15.32
2023-04-12T18:48:54.852Z,15.27
2023-04-12T18:51:27.161Z,15.27
2023-04-12T18:53:59.346Z,15.11
2023-04-12T18:56:31.729Z,15.11
2023-04-12T18:59:04.717Z,15.16
2023-04-12T19:01:37.055Z,15.02
2023-04-12T19:04:09.749Z,15.02
2023-04-12T19:06:42.010Z,14.98
2023-04-12T19:09:14.075Z,14.95
2023-04-12T19:11:46.458Z,14.90
2023-04-12T19:14:18.747Z,14.87
2023-04-12T19:16:51.670Z,14.85
2023-04-12T19:19:23.599Z,14.81
2023-04-12T19:21:55.465Z,14.83
2023-04-12T19:24:27.571Z,14.78
2023-04-12T19:26:59.962Z,14.72
2023-04-12T19:29:31.899Z,14.70
2023-04-12T19:32:05.737Z,14.71
2023-04-12T19:34:37.960Z,14.65
2023-04-12T19:37:10.148Z,14.60
2023-04-12T19:39:42.348Z,14.60
2023-04-12T19:42:15.956Z,14.58
2023-04-12T19:44:48.207Z,14.57
2023-04-12T19:47:20.604Z,14.54
2023-04-12T19:49:52.630Z,14.51
2023-04-12T19:52:24.689Z,14.49
2023-04-12T19:54:56.845Z,14.46
2023-04-12T19:57:28.940Z,14.46
2023-04-12T20:00:01.784Z,14.40
2023-04-12T20:02:35.927Z,14.39
2023-04-12T20:05:08.652Z,14.39
2023-04-12T20:07:40.705Z,14.40
2023-04-12T20:10:15.565Z,14.39
2023-04-12T20:12:47.725Z,14.37
2023-04-12T20:15:20.299Z,14.34
2023-04-12T20:17:52.919Z,14.29
2023-04-12T20:20:25.004Z,14.28
2023-04-12T20:22:58.978Z,14.26
2023-04-12T20:25:32.680Z,14.21
2023-04-12T20:28:04.919Z,14.15
2023-04-12T20:30:37.541Z,14.08
2023-04-12T20:33:09.924Z,14.02
2023-04-12T20:35:43.650Z,13.97
2023-04-12T20:38:15.661Z,13.93
2023-04-12T20:40:48.142Z,13.91
2023-04-12T20:43:20.406Z,13.87
2023-04-12T20:45:52.433Z,13.83
2023-04-12T20:48:25.019Z,13.79
2023-04-12T20:50:57.052Z,13.76
2023-04-12T20:53:30.303Z,13.68
2023-04-12T20:56:02.666Z,13.65
2023-04-12T20:58:35.868Z,13.61
2023-04-12T21:01:08.630Z,13.55
2023-04-12T21:03:41.340Z,13.52
2023-04-12T21:06:13.328Z,13.49
2023-04-12T21:08:47.554Z,13.46
2023-04-12T21:11:19.696Z,13.43
2023-04-12T21:13:52.549Z,13.42
2023-04-12T21:16:25.456Z,13.39
2023-04-12T21:18:59.487Z,13.38
2023-04-12T21:21:34.301Z,13.35
2023-04-12T21:24:07.348Z,13.32
2023-04-12T21:26:39.479Z,13.29
2023-04-12T21:29:11.820Z,13.25
2023-04-12T21:31:44.226Z,13.22
2023-04-12T21:34:18.269Z,13.22
2023-04-12T21:36:50.216Z,13.20
2023-04-12T21:39:22.415Z,13.18
2023-04-12T21:41:54.384Z,13.16
2023-04-12T21:44:27.381Z,13.11
2023-04-12T21:47:00.297Z,13.10
2023-04-12T21:49:33.753Z,13.05
2023-04-12T21:52:06.064Z,13.02
2023-04-12T21:54:38.507Z,12.98
2023-04-12T21:57:11.331Z,12.94
2023-04-12T21:59:44.194Z,12.90
2023-04-12T22:02:16.577Z,12.86
2023-04-12T22:04:48.825Z,12.80
2023-04-12T22:07:21.733Z,12.76
2023-04-12T22:09:54.488Z,12.72
2023-04-12T22:12:26.946Z,12.67
2023-04-12T22:15:00.006Z,12.63
2023-04-12T22:17:33.749Z,12.60
2023-04-12T22:20:07.814Z,12.56
2023-04-12T22:22:40.537Z,12.54
2023-04-12T22:25:14.348Z,12.53
2023-04-12T22:27:47.772Z,12.49
2023-04-12T22:30:20.478Z,12.47
2023-04-12T22:32:53.728Z,12.42
2023-04-12T22:35:26.090Z,12.38
2023-04-12T22:37:58.132Z,12.37
2023-04-12T22:40:30.227Z,12.33
2023-04-12T22:43:02.538Z,12.31
2023-04-12T22:45:36.000Z,12.28
2023-04-12T22:48:09.915Z,12.23
2023-04-12T22:50:42.899Z,12.19
2023-04-12T22:53:15.921Z,12.14
2023-04-12T22:55:48.752Z,12.10
2023-04-12T22:58:20.783Z,12.07
2023-04-12T23:00:53.049Z,12.03
2023-04-12T23:03:25.419Z,11.99
2023-04-12T23:05:57.568Z,11.94
2023-04-12T23:08:29.587Z,11.90
2023-04-12T23:11:04.892Z,11.85
2023-04-12T23:13:37.031Z,11.80
2023-04-12T23:16:09.741Z,11.75
2023-04-12T23:18:41.817Z,11.75
2023-04-12T23:21:13.868Z,11.68
2023-04-12T23:23:46.388Z,11.62
2023-04-12T23:26:18.359Z,11.56
2023-04-12T23:28:50.617Z,11.51
2023-04-12T23:31:22.798Z,11.47
2023-04-12T23:33:55.171Z,11.41
2023-04-12T23:36:27.192Z,11.35
2023-04-12T23:39:03.915Z,11.28
2023-04-12T23:41:36.251Z,11.21
2023-04-12T23:44:08.322Z,11.16
2023-04-12T23:46:40.551Z,11.10
2023-04-12T23:49:13.070Z,11.06
2023-04-12T23:51:45.285Z,11.00
2023-04-12T23:54:17.570Z,10.95
2023-04-12T23:56:49.861Z,10.90
2023-04-12T23:59:22.518Z,10.85
